createdAt,value
2022-10-24T13:16:48.120Z,18.60
2022-10-24T13:19:17.707Z,18.60
2022-10-24T13:21:56.033Z,18.60
2022-10-24T13:24:37.173Z,18.50
2022-10-24T13:27:04.008Z,18.50
2022-10-24T13:29:30.883Z,18.70
2022-10-24T13:32:03.871Z,19.30
2022-10-24T13:34:40.284Z,19.40
2022-10-24T13:37:09.886Z,19.00
2022-10-24T13:39:46.556Z,19.00
2022-10-24T13:42:40.346Z,19.00
2022-10-24T13:45:26.545Z,18.90
2022-10-24T13:48:01.048Z,18.80
2022-10-24T13:50:31.061Z,19.50
2022-10-24T13:53:24.484Z,19.90
2022-10-24T13:55:56.020Z,19.80
2022-10-24T13:58:25.658Z,19.80
2022-10-24T14:01:11.241Z,19.60
2022-10-24T14:03:43.990Z,19.20
2022-10-24T14:06:11.535Z,18.90
2022-10-24T14:08:50.856Z,18.80
2022-10-24T14:11:25.380Z,18.70
2022-10-24T14:14:04.256Z,18.50
2022-10-24T14:16:35.483Z,18.40
2022-10-24T14:19:25.540Z,18.50
2022-10-24T14:21:56.492Z,18.70
2022-10-24T14:24:23.370Z,19.20
2022-10-24T14:26:53.233Z,19.30
2022-10-24T14:29:27.832Z,19.70
2022-10-24T14:31:56.620Z,19.70
2022-10-24T14:34:24.154Z,19.90
2022-10-24T14:36:51.315Z,19.80
2022-10-24T14:39:24.072Z,19.50
2022-10-24T14:41:52.824Z,19.40
2022-10-24T14:44:21.761Z,19.30
2022-10-24T14:48:52.445Z,19.30
2022-10-24T14:51:30.501Z,19.30
2022-10-24T14:54:01.254Z,19.60
2022-10-24T14:56:29.497Z,19.40
2022-10-24T14:58:58.402Z,19.60
2022-10-24T15:01:25.722Z,19.00
2022-10-24T15:03:58.108Z,18.70
2022-10-24T15:06:29.453Z,18.60
2022-10-24T15:09:11.580Z,18.50
2022-10-24T15:11:44.446Z,18.40
2022-10-24T15:14:35.874Z,18.20
2022-10-24T15:17:20.291Z,18.10
2022-10-24T15:19:48.723Z,18.00
2022-10-24T15:22:31.600Z,18.00
2022-10-24T15:25:01.641Z,18.00
2022-10-24T15:27:41.018Z,18.10
2022-10-24T15:30:20.262Z,18.20
2022-10-24T15:32:49.226Z,18.20
2022-10-24T15:35:17.478Z,18.30
2022-10-24T15:37:56.374Z,18.20
2022-10-24T15:40:32.962Z,18.10
2022-10-24T15:43:00.545Z,18.10
2022-10-24T15:45:28.043Z,18.00
2022-10-24T15:47:54.822Z,18.00
2022-10-24T15:50:23.805Z,17.90
2022-10-24T15:52:56.037Z,17.80
2022-10-24T15:55:25.364Z,17.70
2022-10-24T15:57:52.435Z,17.80
2022-10-24T16:00:23.709Z,17.60
2022-10-24T16:02:52.481Z,17.60
2022-10-24T16:05:31.076Z,17.50
2022-10-24T16:07:57.862Z,17.40
2022-10-24T16:10:30.786Z,17.40
2022-10-24T16:12:57.514Z,17.40
2022-10-24T16:15:26.517Z,17.40
2022-10-24T16:17:53.507Z,17.40
2022-10-24T16:20:21.760Z,17.30
2022-10-24T16:22:48.951Z,17.30
2022-10-24T16:25:22.236Z,17.20
2022-10-24T16:27:49.312Z,17.30
2022-10-24T16:30:18.830Z,17.20
2022-10-24T16:32:46.291Z,17.20
2022-10-24T16:35:28.710Z,17.10
2022-10-24T16:37:57.452Z,17.10
2022-10-24T16:40:26.826Z,17.10
2022-10-24T16:42:56.036Z,17.10
2022-10-24T16:46:02.077Z,17.00
2022-10-24T16:48:29.574Z,17.00
2022-10-24T16:50:56.674Z,17.00
2022-10-24T16:53:24.104Z,17.00
2022-10-24T16:55:55.161Z,17.00
2022-10-24T16:58:22.528Z,16.90
2022-10-24T17:00:49.433Z,16.90
2022-10-24T17:03:16.339Z,16.90
2022-10-24T17:08:13.479Z,16.80
2022-10-24T17:10:40.260Z,16.80
2022-10-24T17:13:07.633Z,16.80
2022-10-24T17:15:34.520Z,16.70
2022-10-24T17:18:01.317Z,16.70
2022-10-24T17:20:28.141Z,16.60
2022-10-24T17:22:55.246Z,16.60
2022-10-24T17:25:24.682Z,16.60
2022-10-24T17:27:52.220Z,16.50
2022-10-24T17:30:29.836Z,16.50
2022-10-24T17:32:57.453Z,16.60
2022-10-24T17:35:25.963Z,16.60
2022-10-24T17:38:27.637Z,16.50
2022-10-24T17:40:56.295Z,16.50
2022-10-24T17:43:26.182Z,16.40
2022-10-24T17:45:55.378Z,16.50
2022-10-24T17:48:23.276Z,16.40
2022-10-24T17:50:50.493Z,16.40
2022-10-24T17:53:19.099Z,16.40
2022-10-24T17:55:47.750Z,16.40
2022-10-24T17:58:15.685Z,16.40
2022-10-24T18:00:42.887Z,16.40
2022-10-24T18:03:09.816Z,16.40
2022-10-24T18:05:38.395Z,16.40
2022-10-24T18:08:07.803Z,16.40
2022-10-24T18:10:36.756Z,16.30
2022-10-24T18:13:03.595Z,16.30
2022-10-24T18:15:30.362Z,16.30
2022-10-24T18:17:57.222Z,16.30
2022-10-24T18:20:24.122Z,16.20
2022-10-24T18:22:51.138Z,16.20
2022-10-24T18:25:22.669Z,16.20
2022-10-24T18:27:51.134Z,16.10
2022-10-24T18:30:19.602Z,16.10
2022-10-24T18:32:47.324Z,16.10
2022-10-24T18:35:15.370Z,16.00
2022-10-24T18:37:42.384Z,15.90
2022-10-24T18:40:10.029Z,15.70
2022-10-24T18:42:58.489Z,15.60
2022-10-24T18:45:27.081Z,15.50
2022-10-24T18:47:54.516Z,15.50
2022-10-24T18:50:23.964Z,15.30
2022-10-24T18:53:04.123Z,15.30
2022-10-24T18:55:32.193Z,15.20
2022-10-24T18:57:59.362Z,15.20
2022-10-24T19:00:29.063Z,15.10
2022-10-24T19:03:16.536Z,15.00
2022-10-24T19:05:43.480Z,15.00
2022-10-24T19:08:16.995Z,14.90
2022-10-24T19:10:45.673Z,14.90
2022-10-24T19:13:13.213Z,15.00
2022-10-24T19:15:47.469Z,14.90
2022-10-24T19:18:17.034Z,14.80
2022-10-24T19:20:44.019Z,14.70
2022-10-24T19:23:15.472Z,14.70
2022-10-24T19:25:42.227Z,14.70
2022-10-24T19:28:11.677Z,14.60
2022-10-24T19:30:42.235Z,14.60
2022-10-24T19:33:09.554Z,14.60
2022-10-24T19:35:45.146Z,14.60
2022-10-24T19:38:11.998Z,14.50
2022-10-24T19:40:54.637Z,14.50
2022-10-24T19:43:23.339Z,14.40
2022-10-24T19:46:07.233Z,14.40
2022-10-24T19:48:40.058Z,14.30
2022-10-24T19:51:12.430Z,14.30
2022-10-24T19:53:41.336Z,14.30
2022-10-24T19:56:13.913Z,14.30
2022-10-24T19:58:41.773Z,14.30
2022-10-24T20:01:11.688Z,14.20
2022-10-24T20:03:44.392Z,14.10
2022-10-24T20:06:11.976Z,14.10
2022-10-24T20:08:41.435Z,14.00
2022-10-24T20:11:09.166Z,14.00
2022-10-24T20:13:36.159Z,14.00
2022-10-24T20:16:06.470Z,13.90
2022-10-24T20:18:35.975Z,13.80
2022-10-24T20:21:08.282Z,13.80
2022-10-24T20:23:36.445Z,13.80
2022-10-24T20:26:10.145Z,13.80
2022-10-24T20:28:39.361Z,13.80
2022-10-24T20:31:07.369Z,13.70
2022-10-24T20:33:34.241Z,13.70
2022-10-24T20:36:01.929Z,13.70
2022-10-24T20:38:29.114Z,13.70
2022-10-24T20:41:01.358Z,13.80
2022-10-24T20:43:29.226Z,13.80
2022-10-24T20:45:56.101Z,13.80
2022-10-24T20:48:23.113Z,13.70
2022-10-24T20:50:50.050Z,13.70
2022-10-24T20:53:16.813Z,13.60
2022-10-24T20:55:44.777Z,13.60
2022-10-24T20:58:14.667Z,13.70
2022-10-24T21:03:15.194Z,13.50
2022-10-24T21:05:42.015Z,13.60
2022-10-24T21:08:08.758Z,13.50
2022-10-24T21:10:35.517Z,13.40
2022-10-24T21:13:02.290Z,13.30
2022-10-24T21:15:29.058Z,13.30
2022-10-24T21:17:55.814Z,13.20
2022-10-24T21:20:22.587Z,13.30
2022-10-24T21:22:49.311Z,13.30
2022-10-24T21:25:16.155Z,13.30
2022-10-24T21:27:42.944Z,13.20
2022-10-24T21:30:14.469Z,13.30
2022-10-24T21:32:41.878Z,13.30
2022-10-24T21:35:08.755Z,13.30
2022-10-24T21:37:35.626Z,13.40
2022-10-24T21:40:02.562Z,13.40
2022-10-24T21:42:33.234Z,13.40
2022-10-24T21:45:00.219Z,13.30
2022-10-24T21:47:28.227Z,13.40
2022-10-24T21:49:54.968Z,13.30
2022-10-24T21:52:21.799Z,13.30
2022-10-24T21:54:48.536Z,13.20
2022-10-24T21:57:15.262Z,13.10
2022-10-24T21:59:42.072Z,13.10
2022-10-24T22:02:09.343Z,13.00
2022-10-24T22:04:36.383Z,13.00
2022-10-24T22:07:03.144Z,12.90
2022-10-24T22:09:30.097Z,12.90
2022-10-24T22:11:57.933Z,12.80
2022-10-24T22:14:25.419Z,12.80
2022-10-24T22:16:52.712Z,12.70
2022-10-24T22:19:19.756Z,12.70
2022-10-24T22:21:49.120Z,12.60
2022-10-24T22:24:22.005Z,12.50
2022-10-24T22:26:49.460Z,12.60
2022-10-24T22:29:19.840Z,12.50
2022-10-24T22:31:47.802Z,12.50
2022-10-24T22:34:20.828Z,12.50
2022-10-24T22:37:06.952Z,12.50
2022-10-24T22:39:34.159Z,12.50
2022-10-24T22:42:01.332Z,12.50
2022-10-24T22:44:28.292Z,12.40
2022-10-24T22:47:01.064Z,12.40
2022-10-24T22:49:30.621Z,12.30
2022-10-24T22:51:57.788Z,12.30
2022-10-24T22:54:25.503Z,12.50
2022-10-24T22:56:52.681Z,12.60
2022-10-24T22:59:19.805Z,12.60
2022-10-24T23:02:16.363Z,12.60
2022-10-24T23:05:06.222Z,12.80
2022-10-24T23:07:53.404Z,12.80
2022-10-24T23:10:22.979Z,12.80
2022-10-24T23:12:50.551Z,12.90
2022-10-24T23:15:20.075Z,12.90
2022-10-24T23:17:47.774Z,13.00
2022-10-24T23:20:38.920Z,12.90
2022-10-24T23:23:16.983Z,12.90
2022-10-24T23:26:02.090Z,12.70
2022-10-24T23:28:48.182Z,12.70
2022-10-24T23:31:15.277Z,12.80
2022-10-24T23:33:42.206Z,12.80
2022-10-24T23:36:17.476Z,12.80
2022-10-24T23:38:44.493Z,12.70
2022-10-24T23:41:12.705Z,12.80
2022-10-24T23:43:40.134Z,12.70
2022-10-24T23:46:25.595Z,12.70
2022-10-24T23:49:21.007Z,12.60
2022-10-24T23:52:15.129Z,12.70
2022-10-24T23:54:42.089Z,12.70
2022-10-24T23:57:16.062Z,12.60
2022-10-24T23:59:44.254Z,12.60
